Portada
METAR-TAF:

METAR-TAF

Aeropuertos :

Aeropuerto Internacional Jacinto Lara

Barquisimeto, Venezuela

latitud: 10-04N, longitud: 069-19W, altitud: 613 m

Observación

El informe se hizo hace 39 minutos, a las 00:02 UTC
Viento 9 kt del este-sureste
Temperatura 31°C
Humedad 49%
Presión 1010 hPa

METAR: SVBM 140002Z AUTO 11009KT NCD 31/19 Q1010

Hora: 20:41 (00:41 UTC)

Pronóstico

El informe se hizo hace 3 horas y 25 minutos, a las 21:16 UTC
Pronóstico válido del 14 a las 00 UTC al 15 a las 00 UTC
Viento 10 kt del este
Visibilidad 10 km o más
Escasas nubes a una altura de 1600 ft
Nubes dispersas a una altura de 7000 ft
Evolucionando progresivamente
del 14 a las 04 UTC al 14 a las 08 UTC
Viento 4 kt del este-noreste
Visibilidad: 7000 m
Nubes dispersas a una altura de 1300 ft
neblina

TAF: SVBM 132116Z 1400/1500 09010KT 9999 FEW016 SCT070 TX33/1418Z TN20/1408Z BECMG 1404/1408 06004KT 7000 BR SCT013

Observaciones y pronósticos meteorológicos de más de 4000 aeropuertos (mensajes METAR y TAF).

Los puntos amarillos y rojos representan las estaciones disponibles.

Ponga el ratón en el punto deseado para ver el nombre de la estación.

Haga clic para ver las observaciones y los pronósticos meteorológicos.

Para cambiar el mapa : haga clic en los botones verdes con una cruz de color negro para hacer un zoom, en el botón verde con un guión para alejar o en las flechas verdes para mapas adyacentes.


METAR-TAF: